Time;durP1;ratioP1;P1;durP2;ratioP2;P2;SDS_P1;SDS_P2;PMS_P1;PMS_P2;Temp;Humidity;BMP_temperature;BMP_pressure;BME280_temperature;BME280_humidity;BME280_pressure;Samples;Min_cycle;Max_cycle;Signal;HPM_P1;HPM_P2
2023/09/03 00:01:28;;;;;;;7.28;4.53;;;;;;;24.80;50.68;102691.31;5069626;28;20062;-75
2023/09/03 00:03:54;;;;;;;5.60;4.35;;;;;;;24.63;51.36;102683.97;5073071;28;20036;-75
2023/09/03 00:06:19;;;;;;;7.57;4.68;;;;;;;24.72;51.04;102688.09;5073034;28;20124;-75
2023/09/03 00:08:46;;;;;;;6.38;4.80;;;;;;;24.34;51.14;102685.09;5071931;28;20082;-75
2023/09/03 00:11:11;;;;;;;6.93;4.35;;;;;;;24.43;51.11;102682.09;5089587;28;20032;-75
2023/09/03 00:13:37;;;;;;;7.18;4.70;;;;;;;24.54;51.40;102684.34;5082263;28;20051;-75
2023/09/03 00:16:02;;;;;;;7.43;4.35;;;;;;;24.29;50.98;102684.41;5084873;28;20028;-75
2023/09/03 00:18:28;;;;;;;7.70;4.05;;;;;;;24.52;50.88;102691.53;5092814;28;20464;-75
2023/09/03 00:21:01;;;;;;;5.00;3.70;;;;;;;24.29;51.32;102689.75;5091951;28;20039;-75
2023/09/03 00:23:27;;;;;;;5.40;4.25;;;;;;;24.55;50.98;102691.41;5084628;28;20102;-75
2023/09/03 00:25:53;;;;;;;4.13;3.42;;;;;;;24.62;50.60;102692.06;5073716;28;20477;-75
2023/09/03 00:28:19;;;;;;;5.32;3.80;;;;;;;24.28;51.54;102688.91;5072324;28;20031;-75
2023/09/03 00:30:44;;;;;;;4.25;3.47;;;;;;;24.42;50.82;102677.66;5083286;28;20502;-75
2023/09/03 00:33:10;;;;;;;6.38;4.22;;;;;;;24.29;50.85;102681.75;5075015;28;20407;-75
2023/09/03 00:35:35;;;;;;;6.45;4.07;;;;;;;24.46;50.88;102675.75;5077102;28;20388;-75
2023/09/03 00:38:01;;;;;;;5.15;3.85;;;;;;;24.56;50.27;102666.41;5092418;28;20102;-75
2023/09/03 00:40:26;;;;;;;11.02;4.43;;;;;;;24.31;51.17;102672.75;5092079;28;20017;-75
2023/09/03 00:42:51;;;;;;;7.22;4.28;;;;;;;24.31;50.49;102674.56;5092385;28;20414;-75
2023/09/03 00:45:17;;;;;;;7.22;4.13;;;;;;;24.63;49.82;102667.06;5091013;28;20035;-75
2023/09/03 00:47:42;;;;;;;8.45;4.32;;;;;;;24.54;50.07;102663.81;5079831;28;20028;-75
2023/09/03 00:50:09;;;;;;;5.75;4.18;;;;;;;24.44;50.08;102673.13;5071710;28;20020;-75
2023/09/03 00:52:36;;;;;;;6.57;3.85;;;;;;;24.29;50.65;102668.38;5082814;28;20019;-75
2023/09/03 00:55:02;;;;;;;8.77;3.80;;;;;;;24.37;50.81;102667.16;5093182;28;20312;-74
2023/09/03 00:57:28;;;;;;;5.70;4.20;;;;;;;23.94;51.93;102665.28;5091598;28;20020;-75
2023/09/03 00:59:54;;;;;;;5.18;3.78;;;;;;;24.02;51.05;102671.19;5088204;28;20119;-75
2023/09/03 01:02:21;;;;;;;7.35;4.38;;;;;;;23.97;51.54;102668.69;5071972;28;20035;-75
2023/09/03 01:04:46;;;;;;;6.72;3.75;;;;;;;23.87;51.39;102677.94;5039679;28;20040;-74
2023/09/03 01:07:13;;;;;;;6.93;4.35;;;;;;;23.55;51.90;102670.19;5052680;28;20025;-75
2023/09/03 01:09:40;;;;;;;4.65;3.55;;;;;;;23.84;51.30;102670.06;5035390;28;20020;-74
2023/09/03 01:12:14;;;;;;;6.20;4.00;;;;;;;24.06;50.79;102656.81;5057730;28;20031;-74
2023/09/03 01:14:50;;;;;;;7.13;4.20;;;;;;;24.17;50.67;102654.56;5050265;28;20032;-74
2023/09/03 01:17:38;;;;;;;5.10;3.92;;;;;;;24.43;50.00;102650.00;5034760;28;20089;-74
2023/09/03 01:20:16;;;;;;;8.85;4.20;;;;;;;24.25;50.57;102661.41;5005849;28;20508;-74
2023/09/03 01:23:02;;;;;;;7.60;4.10;;;;;;;24.43;49.52;102652.69;5053174;28;20481;-75
2023/09/03 01:25:41;;;;;;;6.20;4.00;;;;;;;24.29;50.51;102661.25;5053264;28;20123;-75
2023/09/03 01:28:26;;;;;;;7.90;4.95;;;;;;;24.02;50.81;102666.72;5054932;28;20036;-75
2023/09/03 01:31:00;;;;;;;7.85;3.97;;;;;;;23.92;50.76;102669.78;5043279;28;20439;-75
2023/09/03 01:33:27;;;;;;;5.32;3.45;;;;;;;24.10;50.54;102671.78;5067457;28;20025;-75
2023/09/03 01:35:54;;;;;;;6.57;4.45;;;;;;;23.93;51.35;102684.88;5072542;28;20032;-75
2023/09/03 01:38:21;;;;;;;7.25;4.47;;;;;;;24.11;51.16;102676.19;5054251;28;20033;-75
2023/09/03 01:40:50;;;;;;;8.55;5.13;;;;;;;24.25;49.91;102677.44;5054152;28;20028;-75
2023/09/03 01:43:16;;;;;;;10.57;5.15;;;;;;;23.41;51.67;102683.16;5052008;28;20024;-75
2023/09/03 01:45:50;;;;;;;7.03;4.47;;;;;;;23.66;51.55;102680.47;5037728;28;20120;-75
2023/09/03 01:48:39;;;;;;;6.93;4.38;;;;;;;23.19;52.15;102702.56;5041209;28;20029;-75
2023/09/03 01:51:14;;;;;;;8.02;3.95;;;;;;;23.64;51.47;102713.50;5005490;28;20516;-75
2023/09/03 01:54:08;;;;;;;8.05;4.68;;;;;;;23.86;50.79;102714.47;5055573;28;20048;-75
2023/09/03 01:56:39;;;;;;;6.43;4.20;;;;;;;23.74;51.31;102725.59;5032332;28;20056;-75
2023/09/03 01:59:17;;;;;;;6.80;4.45;;;;;;;23.67;51.45;102721.38;5057487;28;20032;-75
2023/09/03 02:01:45;;;;;;;7.45;4.00;;;;;;;23.29;52.18;102719.13;5047985;28;20051;-75
2023/09/03 02:04:11;;;;;;;9.25;4.78;;;;;;;23.36;52.49;102731.34;5070499;28;20035;-75
2023/09/03 02:06:36;;;;;;;6.20;4.25;;;;;;;23.12;53.17;102722.38;5053993;28;20039;-75
2023/09/03 02:09:02;;;;;;;7.15;4.40;;;;;;;23.28;52.81;102719.19;5038852;28;20024;-74
2023/09/03 02:11:27;;;;;;;6.75;4.45;;;;;;;23.85;51.07;102715.41;5037044;28;20020;-74
2023/09/03 02:13:53;;;;;;;8.15;5.07;;;;;;;23.98;50.77;102720.31;5053374;28;20284;-75
2023/09/03 02:16:18;;;;;;;6.40;4.15;;;;;;;24.24;50.50;102713.13;5048873;28;20035;-75
2023/09/03 02:18:44;;;;;;;8.75;4.50;;;;;;;24.28;50.46;102704.06;5071948;28;20043;-75
2023/09/03 02:21:09;;;;;;;8.10;4.75;;;;;;;24.33;49.61;102692.25;5038363;28;20032;-74
2023/09/03 02:23:35;;;;;;;7.70;4.70;;;;;;;24.15;50.34;102698.31;5033610;28;20020;-75
2023/09/03 02:26:02;;;;;;;6.25;4.35;;;;;;;24.25;50.11;102693.47;5050037;28;20032;-75
2023/09/03 02:28:27;;;;;;;6.13;4.20;;;;;;;24.08;50.22;102696.81;5052442;28;20062;-75
2023/09/03 02:30:53;;;;;;;8.75;5.10;;;;;;;24.05;50.57;102706.66;5053839;28;20469;-75
2023/09/03 02:33:18;;;;;;;7.70;5.07;;;;;;;23.98;50.00;102706.97;5053254;28;20028;-75
2023/09/03 02:35:44;;;;;;;10.63;5.00;;;;;;;23.87;50.55;102702.84;5056845;28;20404;-75
2023/09/03 02:38:09;;;;;;;8.82;3.97;;;;;;;24.40;49.15;102690.22;5034447;28;20115;-74
2023/09/03 02:40:36;;;;;;;8.45;4.47;;;;;;;24.06;49.61;102688.84;5052556;28;20601;-75
2023/09/03 02:43:04;;;;;;;7.28;4.20;;;;;;;23.96;50.18;102676.75;5052976;28;20034;-74
2023/09/03 02:45:29;;;;;;;7.40;4.43;;;;;;;23.77;50.82;102666.75;5052088;28;20387;-73
2023/09/03 02:47:55;;;;;;;7.32;4.15;;;;;;;23.91;50.13;102660.06;5053003;28;20024;-75
2023/09/03 02:50:20;;;;;;;6.00;4.15;;;;;;;24.07;49.44;102668.34;5069526;28;20028;-75
2023/09/03 02:52:46;;;;;;;6.68;4.28;;;;;;;23.98;49.47;102664.22;5053705;28;20027;-74
2023/09/03 02:55:12;;;;;;;5.75;3.92;;;;;;;24.18;50.00;102660.78;5034672;28;20535;-73
2023/09/03 02:57:38;;;;;;;9.60;4.30;;;;;;;23.91;50.32;102670.75;5032706;28;20032;-74
2023/09/03 03:00:04;;;;;;;7.10;4.15;;;;;;;24.29;48.92;102671.06;5047493;28;20424;-75
2023/09/03 03:02:29;;;;;;;7.80;4.30;;;;;;;24.09;49.56;102680.72;5070310;28;20511;-73
2023/09/03 03:04:55;;;;;;;6.65;4.60;;;;;;;23.77;50.53;102685.44;5070067;28;20020;-74
2023/09/03 03:07:20;;;;;;;7.32;4.60;;;;;;;23.94;50.26;102683.97;5070627;28;20103;-75
2023/09/03 03:09:55;;;;;;;5.88;3.92;;;;;;;24.09;49.69;102674.50;5069810;28;20115;-75
2023/09/03 03:12:20;;;;;;;4.97;3.50;;;;;;;24.49;48.70;102686.31;5078079;28;20503;-75
2023/09/03 03:14:46;;;;;;;6.63;4.53;;;;;;;24.13;49.75;102695.69;5089766;28;20024;-75
2023/09/03 03:17:11;;;;;;;7.28;4.07;;;;;;;23.94;49.93;102708.00;5090674;28;20436;-74
2023/09/03 03:19:37;;;;;;;7.85;4.65;;;;;;;23.75;50.41;102726.47;5089537;28;20103;-75
2023/09/03 03:22:02;;;;;;;7.85;4.57;;;;;;;23.01;52.47;102735.13;5081770;28;20673;-74
2023/09/03 03:24:28;;;;;;;7.00;4.20;;;;;;;23.21;52.33;102739.88;5075933;28;20031;-74
2023/09/03 03:26:53;;;;;;;6.13;4.18;;;;;;;23.50;51.81;102738.00;5073070;28;20036;-75
2023/09/03 03:29:19;;;;;;;8.90;4.22;;;;;;;23.81;51.04;102732.44;5090887;28;20356;-75
2023/09/03 03:31:46;;;;;;;6.82;4.22;;;;;;;23.92;49.95;102739.22;5088749;28;20089;-75
2023/09/03 03:34:11;;;;;;;7.93;4.47;;;;;;;23.76;50.84;102736.22;5089533;28;20476;-74
2023/09/03 03:36:37;;;;;;;6.97;4.35;;;;;;;23.83;50.36;102724.38;5090202;28;20023;-75
2023/09/03 03:39:02;;;;;;;8.00;5.13;;;;;;;23.85;50.58;102720.72;5093379;28;20436;-74
2023/09/03 03:41:28;;;;;;;10.75;4.70;;;;;;;24.03;49.83;102713.00;5089900;28;20633;-75
2023/09/03 03:43:53;;;;;;;6.18;3.97;;;;;;;23.96;49.81;102714.16;5093775;28;20028;-75
2023/09/03 03:46:20;;;;;;;8.73;4.85;;;;;;;23.97;49.80;102721.22;5092776;28;20020;-75
2023/09/03 03:48:47;;;;;;;6.68;3.78;;;;;;;24.30;48.74;102715.53;5095181;28;20051;-75
2023/09/03 03:51:13;;;;;;;7.10;4.45;;;;;;;23.88;49.66;102728.66;5089917;28;20016;-75
2023/09/03 03:53:39;;;;;;;7.47;4.00;;;;;;;23.11;51.59;102730.38;5093405;28;20127;-75
2023/09/03 03:56:12;;;;;;;9.82;4.75;;;;;;;23.06;52.23;102733.22;5075661;28;20106;-74
2023/09/03 03:58:40;;;;;;;6.03;3.88;;;;;;;23.21;52.04;102740.72;5073082;28;20025;-74
2023/09/03 04:01:20;;;;;;;6.97;4.47;;;;;;;23.46;51.08;102742.56;5072446;28;20044;-75
2023/09/03 04:03:47;;;;;;;7.80;5.13;;;;;;;23.44;51.27;102739.09;5073384;28;20059;-75
2023/09/03 04:06:12;;;;;;;7.20;4.65;;;;;;;23.55;50.64;102731.56;5090697;28;20493;-74
2023/09/03 04:08:39;;;;;;;8.77;4.93;;;;;;;23.97;49.88;102737.25;5093859;28;20081;-75
2023/09/03 04:11:09;;;;;;;9.07;5.20;;;;;;;23.69;50.53;102723.06;5091986;28;20024;-75
2023/09/03 04:13:35;;;;;;;8.48;4.82;;;;;;;23.88;49.77;102728.66;5092261;28;20040;-74
2023/09/03 04:16:06;;;;;;;10.15;5.07;;;;;;;23.58;50.71;102735.06;5084078;28;20025;-75
2023/09/03 04:18:31;;;;;;;8.35;5.28;;;;;;;23.58;50.46;102729.75;5080417;28;20035;-75
2023/09/03 04:20:57;;;;;;;8.07;5.03;;;;;;;23.31;50.92;102727.09;5091924;28;20478;-75
2023/09/03 04:23:25;;;;;;;10.40;6.30;;;;;;;23.23;51.40;102722.00;5089303;28;20043;-75
2023/09/03 04:25:52;;;;;;;8.93;5.05;;;;;;;23.68;50.76;102723.13;5072814;28;20117;-75
2023/09/03 04:28:18;;;;;;;8.13;5.43;;;;;;;23.49;50.58;102726.47;5073206;28;20052;-75
2023/09/03 04:30:44;;;;;;;9.13;5.32;;;;;;;23.93;49.58;102719.59;5073376;28;20017;-74
2023/09/03 04:33:10;;;;;;;10.75;5.35;;;;;;;22.95;51.51;102730.03;5090113;28;20058;-74
2023/09/03 04:35:36;;;;;;;10.27;5.47;;;;;;;23.21;51.49;102735.38;5092199;28;20392;-75
2023/09/03 04:38:02;;;;;;;10.00;5.50;;;;;;;23.14;52.17;102743.66;5094143;28;20502;-75
2023/09/03 04:40:32;;;;;;;8.25;5.10;;;;;;;23.68;50.97;102741.81;5091361;28;20558;-75
2023/09/03 04:42:57;;;;;;;9.85;5.32;;;;;;;23.74;50.36;102744.28;5090163;28;20125;-75
2023/09/03 04:45:22;;;;;;;9.68;5.63;;;;;;;23.93;50.12;102744.50;5092274;28;20483;-74
2023/09/03 04:47:48;;;;;;;9.80;5.43;;;;;;;23.93;49.80;102740.97;5088197;28;20034;-75
2023/09/03 04:50:13;;;;;;;11.05;6.03;;;;;;;23.80;50.18;102741.38;5092816;28;20411;-75
2023/09/03 04:52:48;;;;;;;9.23;5.47;;;;;;;24.03;50.14;102742.38;5077858;28;20028;-75
2023/09/03 04:55:14;;;;;;;9.65;5.97;;;;;;;23.90;49.84;102751.78;5072048;28;20016;-75
2023/09/03 04:57:39;;;;;;;8.90;4.97;;;;;;;24.28;49.05;102768.19;5083844;28;20032;-75
2023/09/03 05:00:05;;;;;;;9.20;5.40;;;;;;;23.82;50.24;102774.25;5085589;28;20040;-75
2023/09/03 05:02:31;;;;;;;8.10;5.15;;;;;;;23.54;50.85;102772.53;5034796;28;20028;-75
2023/09/03 05:04:58;;;;;;;6.78;4.82;;;;;;;23.62;50.53;102758.06;5050206;28;20427;-76
2023/09/03 05:07:23;;;;;;;8.73;5.57;;;;;;;23.64;50.37;102769.53;5054429;28;20032;-76
2023/09/03 05:09:52;;;;;;;9.38;5.95;;;;;;;23.62;50.60;102768.75;5055215;28;20380;-76
2023/09/03 05:12:17;;;;;;;6.95;4.47;;;;;;;23.91;49.38;102770.41;5046144;28;20056;-76
2023/09/03 05:14:43;;;;;;;8.45;5.22;;;;;;;23.63;50.27;102759.78;5049708;28;20448;-76
2023/09/03 05:17:08;;;;;;;9.40;5.10;;;;;;;23.41;50.82;102771.22;5054980;28;20035;-75
2023/09/03 05:19:34;;;;;;;7.80;4.88;;;;;;;23.49;50.74;102763.81;5054527;28;20024;-76
2023/09/03 05:21:59;;;;;;;7.80;4.50;;;;;;;23.47;50.88;102770.13;5071207;28;20426;-76
2023/09/03 05:24:24;;;;;;;6.53;3.88;;;;;;;23.38;51.29;102776.63;5052430;28;20028;-75
2023/09/03 05:26:50;;;;;;;7.80;4.82;;;;;;;23.77;50.22;102778.88;5054991;28;20024;-75
2023/09/03 05:29:15;;;;;;;6.63;4.32;;;;;;;23.47;50.84;102781.66;5051281;28;20035;-76
2023/09/03 05:31:41;;;;;;;8.05;4.80;;;;;;;23.37;51.71;102780.25;5054460;28;20039;-76
2023/09/03 05:34:06;;;;;;;7.50;4.90;;;;;;;23.58;51.09;102788.44;5054761;28;20059;-75
2023/09/03 05:36:32;;;;;;;8.43;4.43;;;;;;;23.67;50.82;102782.78;5037483;28;20116;-75
2023/09/03 05:38:58;;;;;;;12.40;4.97;;;;;;;24.00;50.11;102790.56;5034025;28;20028;-75
2023/09/03 05:41:24;;;;;;;9.48;5.47;;;;;;;23.82;50.67;102798.28;5038273;28;20047;-75
2023/09/03 05:43:53;;;;;;;7.80;4.55;;;;;;;23.81;50.82;102796.53;5057103;28;20104;-75
2023/09/03 05:46:19;;;;;;;7.97;5.18;;;;;;;23.88;50.44;102803.41;5046418;28;20123;-75
2023/09/03 05:48:44;;;;;;;8.00;4.63;;;;;;;24.36;49.61;102792.81;5044202;28;20112;-76
2023/09/03 05:51:09;;;;;;;12.85;5.88;;;;;;;24.12;50.21;102805.28;5046114;28;20082;-75
2023/09/03 05:53:36;;;;;;;7.68;4.82;;;;;;;24.29;50.13;102807.31;5061427;28;20056;-75
2023/09/03 05:56:09;;;;;;;13.00;6.00;;;;;;;24.20;50.44;102820.06;5040758;28;20020;-75
2023/09/03 05:58:35;;;;;;;9.25;5.55;;;;;;;24.15;50.16;102824.75;5038069;28;20071;-75
2023/09/03 06:01:09;;;;;;;10.80;5.65;;;;;;;24.24;50.18;102822.66;5074773;28;20051;-75
2023/09/03 06:03:35;;;;;;;9.70;5.72;;;;;;;23.97;50.73;102822.72;5089491;28;20024;-75
2023/09/03 06:06:05;;;;;;;9.05;5.40;;;;;;;24.03;50.40;102827.84;5075234;28;20028;-75
2023/09/03 06:08:32;;;;;;;9.30;5.53;;;;;;;24.07;50.19;102829.50;5070528;28;20467;-76
2023/09/03 06:10:58;;;;;;;11.15;5.20;;;;;;;23.45;52.13;102820.00;5071811;28;20115;-75
2023/09/03 06:13:25;;;;;;;10.10;5.70;;;;;;;24.28;50.54;102837.66;5072755;28;20088;-75
2023/09/03 06:15:50;;;;;;;10.13;5.47;;;;;;;24.61;49.29;102835.53;5078012;28;20020;-75
2023/09/03 06:18:16;;;;;;;8.90;5.05;;;;;;;24.26;50.39;102844.84;5089768;28;20111;-75
2023/09/03 06:20:41;;;;;;;9.80;5.40;;;;;;;24.55;49.78;102855.34;5079588;28;20375;-74
2023/09/03 06:23:07;;;;;;;10.20;4.90;;;;;;;24.89;48.86;102856.75;5070775;28;20086;-75
2023/09/03 06:25:32;;;;;;;9.02;5.57;;;;;;;24.89;48.89;102862.09;5084129;28;20032;-75
2023/09/03 06:27:58;;;;;;;9.98;5.57;;;;;;;24.60;49.27;102867.66;5091484;28;20020;-75
2023/09/03 06:30:23;;;;;;;9.25;5.30;;;;;;;24.22;50.62;102882.34;5091558;28;20023;-75
2023/09/03 06:32:48;;;;;;;15.05;6.30;;;;;;;24.65;50.59;102873.75;5084496;28;20541;-75
2023/09/03 06:35:14;;;;;;;11.95;5.50;;;;;;;24.68;50.61;102879.81;5078912;28;20039;-75
2023/09/03 06:37:40;;;;;;;9.70;5.35;;;;;;;24.83;50.37;102873.03;5084262;28;20118;-75
2023/09/03 06:40:07;;;;;;;11.98;5.55;;;;;;;25.09;49.82;102873.81;5070184;28;20021;-75
2023/09/03 06:42:32;;;;;;;7.63;4.78;;;;;;;25.24;49.56;102862.50;5077327;28;20032;-75
2023/09/03 06:44:58;;;;;;;8.95;4.97;;;;;;;24.89;49.78;102867.47;5090079;28;20035;-75
2023/09/03 06:47:23;;;;;;;10.25;5.70;;;;;;;25.15;49.52;102862.00;5090671;28;20282;-75
2023/09/03 06:49:52;;;;;;;9.00;4.90;;;;;;;25.29;49.02;102856.09;5085175;28;20411;-75
2023/09/03 06:52:18;;;;;;;11.70;5.78;;;;;;;25.30;49.17;102861.38;5079466;28;20032;-75
2023/09/03 06:54:43;;;;;;;8.45;5.05;;;;;;;26.11;46.80;102861.63;5069992;28;20473;-75
2023/09/03 06:57:09;;;;;;;8.63;5.40;;;;;;;26.36;46.31;102864.06;5085787;28;20028;-73
2023/09/03 06:59:34;;;;;;;8.27;4.63;;;;;;;26.33;46.36;102863.34;5073931;28;20142;-75
2023/09/03 07:02:00;;;;;;;7.75;5.05;;;;;;;26.28;45.35;102855.50;5036190;28;20036;-75
2023/09/03 07:04:26;;;;;;;8.90;5.03;;;;;;;26.12;46.53;102860.69;5045526;28;20034;-75
2023/09/03 07:06:51;;;;;;;9.30;4.88;;;;;;;26.51;45.74;102861.63;5049132;28;20373;-75
2023/09/03 07:09:17;;;;;;;9.85;5.00;;;;;;;26.48;45.42;102865.31;5048703;28;20056;-75
2023/09/03 07:11:42;;;;;;;9.43;4.43;;;;;;;26.06;45.64;102868.97;5032300;28;20024;-75
2023/09/03 07:14:08;;;;;;;7.45;5.20;;;;;;;26.46;45.93;102874.38;5050978;28;20147;-75
2023/09/03 07:16:34;;;;;;;9.18;5.28;;;;;;;26.60;45.57;102863.91;5051871;28;20078;-76
2023/09/03 07:19:00;;;;;;;8.95;5.25;;;;;;;26.55;45.38;102872.13;5037224;28;20036;-75
2023/09/03 07:21:25;;;;;;;7.10;4.22;;;;;;;26.97;45.00;102875.63;5032742;28;20033;-75
2023/09/03 07:23:51;;;;;;;6.38;4.13;;;;;;;26.84;44.87;102886.03;5033437;28;20033;-75
2023/09/03 07:26:16;;;;;;;10.70;5.50;;;;;;;26.96;44.80;102900.69;5032952;28;20427;-75
2023/09/03 07:28:42;;;;;;;8.23;4.90;;;;;;;27.42;44.19;102893.16;5045305;28;20024;-76
2023/09/03 07:31:07;;;;;;;9.48;5.18;;;;;;;27.85;42.79;102894.59;5051902;28;20060;-76
2023/09/03 07:33:33;;;;;;;10.52;6.05;;;;;;;28.03;42.71;102890.16;5068312;28;20052;-75
2023/09/03 07:35:59;;;;;;;9.07;5.20;;;;;;;28.79;42.59;102897.75;5052976;28;20086;-76
2023/09/03 07:38:27;;;;;;;8.68;4.85;;;;;;;29.91;40.65;102903.97;5053021;28;20131;-76
2023/09/03 07:40:52;;;;;;;8.20;5.32;;;;;;;29.67;39.71;102906.25;5053324;28;20089;-75
2023/09/03 07:43:18;;;;;;;10.18;5.88;;;;;;;30.75;38.89;102910.50;5054617;28;20028;-74
2023/09/03 07:45:44;;;;;;;7.50;4.95;;;;;;;30.65;37.67;102903.09;5060371;28;20036;-74
2023/09/03 07:48:11;;;;;;;6.72;4.63;;;;;;;31.54;36.10;102908.09;5053093;28;20123;-75
2023/09/03 07:50:39;;;;;;;6.35;3.88;;;;;;;31.93;36.26;102908.19;5070225;28;20020;-75
2023/09/03 07:53:05;;;;;;;7.32;4.55;;;;;;;33.11;33.79;102919.72;5052199;28;20115;-75
2023/09/03 07:55:31;;;;;;;7.30;4.72;;;;;;;31.63;35.67;102912.91;5051019;28;20147;-75
2023/09/03 07:57:56;;;;;;;7.63;4.57;;;;;;;32.14;34.81;102916.69;5041426;28;20037;-75
2023/09/03 08:00:22;;;;;;;7.72;4.60;;;;;;;30.86;36.47;102917.91;5043587;28;20560;-75
2023/09/03 08:02:47;;;;;;;7.07;4.55;;;;;;;31.95;34.52;102912.53;5069353;28;20047;-74
2023/09/03 08:05:12;;;;;;;6.50;4.68;;;;;;;31.69;35.81;102910.78;5069666;28;20500;-75
2023/09/03 08:07:38;;;;;;;6.90;4.30;;;;;;;32.10;35.12;102904.34;5069727;28;20028;-77
2023/09/03 08:10:04;;;;;;;9.68;4.55;;;;;;;31.23;35.76;102910.16;5069373;28;20024;-77
2023/09/03 08:12:29;;;;;;;6.63;4.40;;;;;;;31.53;35.23;102905.50;5086032;28;20032;-76
2023/09/03 08:14:55;;;;;;;6.55;4.10;;;;;;;31.83;35.10;102907.13;5083157;28;20024;-77
2023/09/03 08:17:21;;;;;;;7.50;4.05;;;;;;;31.56;35.46;102916.09;5086508;28;20040;-76
2023/09/03 08:19:47;;;;;;;6.07;3.95;;;;;;;31.81;36.67;102915.34;5069251;28;20036;-76
2023/09/03 08:22:12;;;;;;;9.45;4.70;;;;;;;31.23;36.44;102920.06;5068892;28;20025;-76
2023/09/03 08:24:38;;;;;;;6.78;4.07;;;;;;;31.05;36.83;102916.75;5080831;28;20473;-76
2023/09/03 08:27:03;;;;;;;7.18;4.32;;;;;;;30.76;37.33;102922.16;5092509;28;20442;-77
2023/09/03 08:29:29;;;;;;;5.97;4.28;;;;;;;30.88;38.51;102915.97;5090014;28;20544;-77
2023/09/03 08:31:54;;;;;;;7.80;4.50;;;;;;;31.46;37.46;102916.72;5093091;28;20475;-77
2023/09/03 08:34:20;;;;;;;7.97;4.28;;;;;;;31.89;35.74;102901.28;5092507;28;20023;-76
2023/09/03 08:36:45;;;;;;;5.97;4.20;;;;;;;33.14;34.44;102903.28;5094512;28;20483;-75
2023/09/03 08:39:11;;;;;;;4.97;3.78;;;;;;;32.40;34.53;102905.91;5076841;28;20120;-75
2023/09/03 08:41:38;;;;;;;6.57;4.10;;;;;;;33.92;33.46;102906.47;5071917;28;20029;-76
2023/09/03 08:44:16;;;;;;;5.97;4.15;;;;;;;33.22;34.07;102914.41;5073095;28;20028;-76
2023/09/03 08:46:46;;;;;;;6.10;4.65;;;;;;;33.09;33.19;102924.41;5073817;28;20020;-76
2023/09/03 08:49:13;;;;;;;6.68;4.20;;;;;;;33.44;33.68;102920.91;5072913;28;20468;-76
2023/09/03 08:51:38;;;;;;;7.93;4.88;;;;;;;33.25;33.45;102921.44;5072852;28;20106;-76
2023/09/03 08:54:05;;;;;;;8.50;4.53;;;;;;;33.28;34.00;102913.97;5072940;28;20032;-76
2023/09/03 08:56:33;;;;;;;7.22;4.47;;;;;;;33.46;33.14;102910.84;5072618;28;20471;-76
2023/09/03 08:58:58;;;;;;;12.88;7.05;;;;;;;34.15;31.60;102908.22;5087544;28;20020;-76
2023/09/03 09:01:24;;;;;;;5.60;4.10;;;;;;;33.49;32.88;102914.16;5107928;28;20066;-76
2023/09/03 09:03:54;;;;;;;7.07;4.15;;;;;;;33.83;32.84;102908.06;5108850;28;20392;-76
2023/09/03 09:06:20;;;;;;;4.63;3.50;;;;;;;33.78;33.32;102904.81;5100542;28;20035;-76
2023/09/03 09:08:46;;;;;;;6.45;4.22;;;;;;;34.71;32.05;102905.69;5101409;28;20008;-75
2023/09/03 09:11:16;;;;;;;4.90;3.83;;;;;;;34.37;32.77;102911.13;5110110;28;20046;-76
2023/09/03 09:13:52;;;;;;;4.88;3.72;;;;;;;33.93;32.21;102913.63;5110321;28;20055;-75
2023/09/03 09:16:17;;;;;;;4.25;3.58;;;;;;;33.52;32.23;102915.78;5109170;28;20024;-76
2023/09/03 09:18:42;;;;;;;5.93;3.55;;;;;;;33.51;33.15;102911.38;5107236;28;20386;-76
2023/09/03 09:21:08;;;;;;;5.20;3.67;;;;;;;34.08;31.86;102917.00;5109507;28;20032;-76
2023/09/03 09:23:34;;;;;;;6.03;4.13;;;;;;;33.65;33.13;102918.44;5107366;28;20036;-75
2023/09/03 09:26:00;;;;;;;4.53;3.15;;;;;;;33.44;33.00;102910.97;5106629;28;20028;-76
2023/09/03 09:28:26;;;;;;;7.82;3.40;;;;;;;33.93;32.52;102908.19;5090070;28;20457;-76
2023/09/03 09:30:56;;;;;;;4.20;3.10;;;;;;;33.10;32.59;102909.91;5089462;28;20480;-77
2023/09/03 09:33:22;;;;;;;6.10;3.38;;;;;;;33.83;31.42;102905.34;5098951;28;20059;-77
2023/09/03 09:35:48;;;;;;;6.43;3.33;;;;;;;33.81;31.46;102908.19;5097875;28;20028;-77
2023/09/03 09:38:14;;;;;;;3.85;2.80;;;;;;;34.29;30.38;102904.47;5094044;28;20107;-76
2023/09/03 09:40:40;;;;;;;4.68;3.42;;;;;;;34.71;30.16;102894.84;5094221;28;20035;-76
2023/09/03 09:43:09;;;;;;;4.00;3.00;;;;;;;33.96;31.02;102903.41;5093129;28;20023;-76
2023/09/03 09:46:04;;;;;;;4.15;3.10;;;;;;;34.17;31.25;102900.00;5096549;28;20036;-75
2023/09/03 09:48:30;;;;;;;3.50;2.60;;;;;;;34.71;29.54;102890.25;5072946;28;20569;-76
2023/09/03 09:50:55;;;;;;;4.63;2.67;;;;;;;33.26;30.43;102893.38;5072246;28;20036;-75
2023/09/03 09:53:23;;;;;;;3.45;2.40;;;;;;;33.47;31.75;102885.47;5072320;28;20062;-75
2023/09/03 09:55:58;;;;;;;3.88;2.38;;;;;;;33.89;29.60;102891.28;5077203;28;20021;-76
2023/09/03 09:58:34;;;;;;;5.38;3.08;;;;;;;33.35;31.36;102897.25;5088119;28;20452;-76
2023/09/03 10:00:59;;;;;;;5.80;3.15;;;;;;;33.08;31.05;102892.88;5072671;28;20070;-76
2023/09/03 10:03:40;;;;;;;4.05;2.72;;;;;;;33.62;30.42;102889.72;5070894;28;20051;-76
2023/09/03 10:06:06;;;;;;;5.13;3.25;;;;;;;33.30;32.53;102892.16;5073988;28;20086;-76
2023/09/03 10:08:32;;;;;;;6.45;2.78;;;;;;;33.27;32.13;102904.09;5086409;28;20031;-76
2023/09/03 10:10:57;;;;;;;5.82;3.10;;;;;;;32.58;32.68;102909.97;5073592;28;20024;-76
2023/09/03 10:13:23;;;;;;;6.00;3.22;;;;;;;32.69;33.00;102900.25;5071122;28;20032;-75
2023/09/03 10:15:49;;;;;;;3.80;2.58;;;;;;;32.76;31.53;102902.41;5073849;28;20052;-75
2023/09/03 10:18:16;;;;;;;2.90;2.58;;;;;;;32.52;33.32;102905.03;5074022;28;20115;-77
2023/09/03 10:20:42;;;;;;;6.03;3.88;;;;;;;31.99;33.08;102901.53;5071410;28;20537;-76
2023/09/03 10:23:07;;;;;;;6.20;3.53;;;;;;;31.86;33.96;102896.97;5074043;28;20036;-76
2023/09/03 10:25:35;;;;;;;3.97;2.97;;;;;;;32.12;33.77;102894.28;5073060;28;20024;-75
2023/09/03 10:28:05;;;;;;;5.13;2.90;;;;;;;31.86;33.71;102890.69;5073930;28;20468;-76
2023/09/03 10:30:39;;;;;;;6.15;3.17;;;;;;;31.82;34.93;102894.56;5088756;28;20551;-77
2023/09/03 10:33:07;;;;;;;4.50;2.72;;;;;;;32.06;34.53;102892.00;5071364;28;20044;-76
2023/09/03 10:35:33;;;;;;;4.47;2.67;;;;;;;32.00;32.70;102904.13;5071184;28;20523;-76
2023/09/03 10:37:58;;;;;;;6.30;3.08;;;;;;;31.90;34.00;102897.63;5082182;28;20052;-76
2023/09/03 10:40:26;;;;;;;3.75;2.88;;;;;;;31.69;32.88;102894.56;5090893;28;20039;-76
2023/09/03 10:42:53;;;;;;;4.18;2.35;;;;;;;31.44;32.52;102897.03;5071727;28;20093;-76
2023/09/03 10:45:19;;;;;;;5.75;2.97;;;;;;;31.63;33.34;102898.53;5069577;28;20029;-76
2023/09/03 10:48:05;;;;;;;4.53;2.00;;;;;;;32.00;33.38;102895.13;5069824;28;20024;-76
2023/09/03 10:50:45;;;;;;;7.05;2.60;;;;;;;32.44;33.87;102907.41;5070575;28;20284;-76
2023/09/03 10:53:35;;;;;;;5.18;3.08;;;;;;;32.14;33.63;102900.44;5071271;28;20027;-76
2023/09/03 10:56:08;;;;;;;3.20;2.10;;;;;;;31.53;33.10;102897.38;5069776;28;20214;-75
2023/09/03 10:58:34;;;;;;;5.55;2.08;;;;;;;31.70;33.41;102899.84;5070107;28;20024;-76
2023/09/03 11:01:32;;;;;;;2.38;2.15;;;;;;;31.84;32.59;102904.31;5070341;28;20087;-75
2023/09/03 11:04:02;;;;;;;4.50;2.38;;;;;;;32.11;33.33;102903.38;5074098;28;20034;-76
2023/09/03 11:06:32;;;;;;;3.92;2.10;;;;;;;32.51;32.76;102897.88;5081409;28;20035;-76
2023/09/03 11:09:01;;;;;;;6.78;2.50;;;;;;;32.83;32.28;102901.97;5089740;28;20028;-76
2023/09/03 11:11:28;;;;;;;4.50;2.80;;;;;;;33.28;31.29;102902.28;5088825;28;20472;-76
2023/09/03 11:13:55;;;;;;;3.63;2.55;;;;;;;32.93;32.41;102906.59;5090462;28;20028;-77
2023/09/03 11:16:28;;;;;;;5.32;3.00;;;;;;;32.51;33.12;102906.00;5078785;28;20024;-77
2023/09/03 11:18:54;;;;;;;3.13;2.20;;;;;;;33.19;31.30;102909.19;5070432;28;20393;-77
2023/09/03 11:21:23;;;;;;;3.53;2.35;;;;;;;31.93;32.23;102914.50;5072356;28;20081;-77
2023/09/03 11:23:59;;;;;;;4.60;1.88;;;;;;;31.96;31.64;102916.13;5069364;28;20024;-77
2023/09/03 11:26:25;;;;;;;4.25;1.40;;;;;;;32.03;30.58;102911.16;5079085;28;20032;-76